sensor_id;sensor_type;location;lat;lon;timestamp;P1;durP1;ratioP1;P2;durP2;ratioP2
7841;SDS011;3966;51.052;13.820;2022-11-15T00:01:28;55.53;;;25.67;;
7841;SDS011;3966;51.052;13.820;2022-11-15T00:03:53;52.80;;;25.08;;
7841;SDS011;3966;51.052;13.820;2022-11-15T00:06:19;55.08;;;24.88;;
7841;SDS011;3966;51.052;13.820;2022-11-15T00:08:44;55.15;;;25.15;;
7841;SDS011;3966;51.052;13.820;2022-11-15T00:11:10;56.60;;;25.27;;
7841;SDS011;3966;51.052;13.820;2022-11-15T00:13:37;56.30;;;25.20;;
7841;SDS011;3966;51.052;13.820;2022-11-15T00:16:02;54.38;;;24.48;;
7841;SDS011;3966;51.052;13.820;2022-11-15T00:18:29;55.00;;;25.38;;
7841;SDS011;3966;51.052;13.820;2022-11-15T00:20:55;54.97;;;25.52;;
7841;SDS011;3966;51.052;13.820;2022-11-15T00:23:27;51.80;;;24.55;;
7841;SDS011;3966;51.052;13.820;2022-11-15T00:25:59;57.80;;;25.20;;
7841;SDS011;3966;51.052;13.820;2022-11-15T00:28:25;53.13;;;25.10;;
7841;SDS011;3966;51.052;13.820;2022-11-15T00:30:50;52.92;;;24.75;;
7841;SDS011;3966;51.052;13.820;2022-11-15T00:33:16;55.03;;;25.40;;
7841;SDS011;3966;51.052;13.820;2022-11-15T00:35:42;57.85;;;25.40;;
7841;SDS011;3966;51.052;13.820;2022-11-15T00:38:07;60.90;;;26.50;;
7841;SDS011;3966;51.052;13.820;2022-11-15T00:40:33;58.13;;;26.35;;
7841;SDS011;3966;51.052;13.820;2022-11-15T00:42:59;58.92;;;27.63;;
7841;SDS011;3966;51.052;13.820;2022-11-15T00:45:24;60.40;;;25.20;;
7841;SDS011;3966;51.052;13.820;2022-11-15T00:47:50;59.40;;;26.92;;
7841;SDS011;3966;51.052;13.820;2022-11-15T00:50:16;56.65;;;26.52;;
7841;SDS011;3966;51.052;13.820;2022-11-15T00:52:42;57.30;;;26.02;;
7841;SDS011;3966;51.052;13.820;2022-11-15T00:55:18;56.33;;;26.88;;
7841;SDS011;3966;51.052;13.820;2022-11-15T00:57:44;59.28;;;26.20;;
7841;SDS011;3966;51.052;13.820;2022-11-15T01:00:10;61.25;;;26.88;;
7841;SDS011;3966;51.052;13.820;2022-11-15T01:02:36;63.78;;;26.90;;
7841;SDS011;3966;51.052;13.820;2022-11-15T01:05:02;62.78;;;26.63;;
7841;SDS011;3966;51.052;13.820;2022-11-15T01:07:28;61.10;;;26.42;;
7841;SDS011;3966;51.052;13.820;2022-11-15T01:09:53;58.67;;;26.02;;
7841;SDS011;3966;51.052;13.820;2022-11-15T01:12:19;57.20;;;26.20;;
7841;SDS011;3966;51.052;13.820;2022-11-15T01:14:44;59.20;;;26.33;;
7841;SDS011;3966;51.052;13.820;2022-11-15T01:17:10;59.20;;;26.20;;
7841;SDS011;3966;51.052;13.820;2022-11-15T01:19:35;55.33;;;24.75;;
7841;SDS011;3966;51.052;13.820;2022-11-15T01:22:01;57.22;;;25.85;;
7841;SDS011;3966;51.052;13.820;2022-11-15T01:24:26;57.83;;;25.15;;
7841;SDS011;3966;51.052;13.820;2022-11-15T01:26:52;59.42;;;24.30;;
7841;SDS011;3966;51.052;13.820;2022-11-15T01:29:18;62.30;;;25.83;;
7841;SDS011;3966;51.052;13.820;2022-11-15T01:31:43;60.67;;;25.83;;
7841;SDS011;3966;51.052;13.820;2022-11-15T01:34:09;55.85;;;24.73;;
7841;SDS011;3966;51.052;13.820;2022-11-15T01:36:34;63.45;;;26.88;;
7841;SDS011;3966;51.052;13.820;2022-11-15T01:39:00;58.55;;;26.25;;
7841;SDS011;3966;51.052;13.820;2022-11-15T01:41:27;57.78;;;26.02;;
7841;SDS011;3966;51.052;13.820;2022-11-15T01:43:56;62.25;;;26.35;;
7841;SDS011;3966;51.052;13.820;2022-11-15T01:46:40;62.03;;;26.40;;
7841;SDS011;3966;51.052;13.820;2022-11-15T01:49:13;65.45;;;27.42;;
7841;SDS011;3966;51.052;13.820;2022-11-15T01:51:41;64.30;;;25.63;;
7841;SDS011;3966;51.052;13.820;2022-11-15T01:54:08;62.35;;;25.92;;
7841;SDS011;3966;51.052;13.820;2022-11-15T01:56:40;56.55;;;25.20;;
7841;SDS011;3966;51.052;13.820;2022-11-15T01:59:11;60.67;;;24.88;;
7841;SDS011;3966;51.052;13.820;2022-11-15T02:01:37;64.97;;;27.58;;
7841;SDS011;3966;51.052;13.820;2022-11-15T02:06:49;64.80;;;25.88;;
7841;SDS011;3966;51.052;13.820;2022-11-15T02:09:15;62.70;;;24.77;;
7841;SDS011;3966;51.052;13.820;2022-11-15T02:11:41;56.35;;;23.70;;
7841;SDS011;3966;51.052;13.820;2022-11-15T02:14:08;60.40;;;25.98;;
7841;SDS011;3966;51.052;13.820;2022-11-15T02:16:42;64.32;;;24.90;;
7841;SDS011;3966;51.052;13.820;2022-11-15T02:25:01;60.85;;;22.95;;
7841;SDS011;3966;51.052;13.820;2022-11-15T02:30:25;55.55;;;22.83;;
7841;SDS011;3966;51.052;13.820;2022-11-15T02:39:25;51.88;;;22.83;;
7841;SDS011;3966;51.052;13.820;2022-11-15T02:41:57;53.42;;;23.40;;
7841;SDS011;3966;51.052;13.820;2022-11-15T02:44:54;53.75;;;22.38;;
7841;SDS011;3966;51.052;13.820;2022-11-15T02:47:22;57.83;;;23.65;;
7841;SDS011;3966;51.052;13.820;2022-11-15T02:49:52;57.35;;;22.92;;
7841;SDS011;3966;51.052;13.820;2022-11-15T02:52:22;49.63;;;21.83;;
7841;SDS011;3966;51.052;13.820;2022-11-15T02:54:55;61.38;;;22.73;;
7841;SDS011;3966;51.052;13.820;2022-11-15T03:00:14;48.47;;;20.48;;
7841;SDS011;3966;51.052;13.820;2022-11-15T03:08:08;44.10;;;19.33;;
7841;SDS011;3966;51.052;13.820;2022-11-15T03:13:26;43.78;;;19.98;;
7841;SDS011;3966;51.052;13.820;2022-11-15T03:16:02;43.92;;;18.83;;
7841;SDS011;3966;51.052;13.820;2022-11-15T03:18:32;51.08;;;19.80;;
7841;SDS011;3966;51.052;13.820;2022-11-15T03:21:07;45.28;;;18.80;;
7841;SDS011;3966;51.052;13.820;2022-11-15T03:23:36;46.15;;;18.30;;
7841;SDS011;3966;51.052;13.820;2022-11-15T03:26:03;44.28;;;19.77;;
7841;SDS011;3966;51.052;13.820;2022-11-15T03:28:37;42.45;;;19.35;;
7841;SDS011;3966;51.052;13.820;2022-11-15T03:31:15;45.53;;;18.23;;
7841;SDS011;3966;51.052;13.820;2022-11-15T03:34:03;38.03;;;17.70;;
7841;SDS011;3966;51.052;13.820;2022-11-15T03:36:33;45.03;;;19.27;;
7841;SDS011;3966;51.052;13.820;2022-11-15T03:39:00;45.80;;;18.90;;
7841;SDS011;3966;51.052;13.820;2022-11-15T03:44:46;42.47;;;17.55;;
7841;SDS011;3966;51.052;13.820;2022-11-15T03:47:25;44.63;;;18.05;;
7841;SDS011;3966;51.052;13.820;2022-11-15T03:49:59;39.13;;;18.08;;
7841;SDS011;3966;51.052;13.820;2022-11-15T03:52:30;43.53;;;17.80;;
7841;SDS011;3966;51.052;13.820;2022-11-15T03:54:58;40.88;;;18.08;;
7841;SDS011;3966;51.052;13.820;2022-11-15T03:57:26;37.03;;;17.38;;
7841;SDS011;3966;51.052;13.820;2022-11-15T03:59:51;42.08;;;18.15;;
7841;SDS011;3966;51.052;13.820;2022-11-15T04:02:17;41.40;;;17.80;;
7841;SDS011;3966;51.052;13.820;2022-11-15T04:04:42;44.63;;;19.05;;
7841;SDS011;3966;51.052;13.820;2022-11-15T04:07:08;39.47;;;16.88;;
7841;SDS011;3966;51.052;13.820;2022-11-15T04:09:34;39.88;;;17.77;;
7841;SDS011;3966;51.052;13.820;2022-11-15T04:12:19;45.33;;;18.85;;
7841;SDS011;3966;51.052;13.820;2022-11-15T04:14:55;43.08;;;17.58;;
7841;SDS011;3966;51.052;13.820;2022-11-15T04:17:32;38.85;;;16.80;;
7841;SDS011;3966;51.052;13.820;2022-11-15T04:20:33;35.22;;;15.38;;
7841;SDS011;3966;51.052;13.820;2022-11-15T04:23:18;39.37;;;15.90;;
7841;SDS011;3966;51.052;13.820;2022-11-15T04:26:05;32.40;;;14.98;;
7841;SDS011;3966;51.052;13.820;2022-11-15T04:28:35;38.28;;;16.30;;
7841;SDS011;3966;51.052;13.820;2022-11-15T04:31:21;39.50;;;16.58;;
7841;SDS011;3966;51.052;13.820;2022-11-15T04:33:47;41.63;;;16.25;;
7841;SDS011;3966;51.052;13.820;2022-11-15T04:36:12;37.67;;;16.42;;
7841;SDS011;3966;51.052;13.820;2022-11-15T04:38:56;36.90;;;15.65;;
7841;SDS011;3966;51.052;13.820;2022-11-15T04:41:22;34.50;;;15.85;;
7841;SDS011;3966;51.052;13.820;2022-11-15T04:43:47;34.90;;;15.70;;
7841;SDS011;3966;51.052;13.820;2022-11-15T04:46:13;33.78;;;15.68;;
7841;SDS011;3966;51.052;13.820;2022-11-15T04:48:38;38.55;;;15.98;;
7841;SDS011;3966;51.052;13.820;2022-11-15T04:51:04;38.63;;;16.70;;
7841;SDS011;3966;51.052;13.820;2022-11-15T04:53:29;39.10;;;15.43;;
7841;SDS011;3966;51.052;13.820;2022-11-15T04:55:55;38.67;;;15.20;;
7841;SDS011;3966;51.052;13.820;2022-11-15T04:58:21;38.65;;;15.45;;
7841;SDS011;3966;51.052;13.820;2022-11-15T05:00:57;38.45;;;15.50;;
7841;SDS011;3966;51.052;13.820;2022-11-15T05:03:22;36.60;;;16.60;;
7841;SDS011;3966;51.052;13.820;2022-11-15T05:06:06;39.83;;;15.73;;
7841;SDS011;3966;51.052;13.820;2022-11-15T05:08:32;43.05;;;17.80;;
7841;SDS011;3966;51.052;13.820;2022-11-15T05:11:01;34.50;;;15.80;;
7841;SDS011;3966;51.052;13.820;2022-11-15T05:13:30;37.95;;;15.20;;
7841;SDS011;3966;51.052;13.820;2022-11-15T05:15:56;39.60;;;16.52;;
7841;SDS011;3966;51.052;13.820;2022-11-15T05:18:21;39.80;;;16.67;;
7841;SDS011;3966;51.052;13.820;2022-11-15T05:20:56;35.95;;;16.73;;
7841;SDS011;3966;51.052;13.820;2022-11-15T05:23:32;39.33;;;16.17;;
7841;SDS011;3966;51.052;13.820;2022-11-15T05:26:01;35.38;;;16.15;;
7841;SDS011;3966;51.052;13.820;2022-11-15T05:28:27;37.58;;;16.15;;
7841;SDS011;3966;51.052;13.820;2022-11-15T05:30:59;36.05;;;15.65;;
7841;SDS011;3966;51.052;13.820;2022-11-15T05:33:31;35.17;;;15.65;;
7841;SDS011;3966;51.052;13.820;2022-11-15T05:36:04;40.92;;;16.10;;
7841;SDS011;3966;51.052;13.820;2022-11-15T05:38:43;35.58;;;15.25;;
7841;SDS011;3966;51.052;13.820;2022-11-15T05:41:09;32.05;;;15.15;;
7841;SDS011;3966;51.052;13.820;2022-11-15T05:43:35;40.88;;;17.05;;
7841;SDS011;3966;51.052;13.820;2022-11-15T05:46:02;38.70;;;16.83;;
7841;SDS011;3966;51.052;13.820;2022-11-15T05:48:29;41.40;;;17.33;;
7841;SDS011;3966;51.052;13.820;2022-11-15T05:50:54;40.58;;;17.67;;
7841;SDS011;3966;51.052;13.820;2022-11-15T05:53:21;39.78;;;16.50;;
7841;SDS011;3966;51.052;13.820;2022-11-15T05:55:49;50.53;;;22.58;;
7841;SDS011;3966;51.052;13.820;2022-11-15T05:58:15;44.53;;;21.67;;
7841;SDS011;3966;51.052;13.820;2022-11-15T06:00:41;49.78;;;21.45;;
7841;SDS011;3966;51.052;13.820;2022-11-15T06:03:08;40.20;;;16.55;;
7841;SDS011;3966;51.052;13.820;2022-11-15T06:05:33;44.08;;;18.08;;
7841;SDS011;3966;51.052;13.820;2022-11-15T06:07:59;39.45;;;17.58;;
7841;SDS011;3966;51.052;13.820;2022-11-15T06:10:25;40.53;;;16.88;;
7841;SDS011;3966;51.052;13.820;2022-11-15T06:13:01;40.53;;;17.30;;
7841;SDS011;3966;51.052;13.820;2022-11-15T06:15:28;47.28;;;18.83;;
7841;SDS011;3966;51.052;13.820;2022-11-15T06:17:56;46.08;;;17.48;;
7841;SDS011;3966;51.052;13.820;2022-11-15T06:20:23;39.80;;;17.27;;
7841;SDS011;3966;51.052;13.820;2022-11-15T06:22:58;42.58;;;17.65;;
7841;SDS011;3966;51.052;13.820;2022-11-15T06:25:25;47.05;;;20.63;;
7841;SDS011;3966;51.052;13.820;2022-11-15T06:27:52;39.38;;;17.80;;
7841;SDS011;3966;51.052;13.820;2022-11-15T06:30:18;42.38;;;16.33;;
7841;SDS011;3966;51.052;13.820;2022-11-15T06:32:44;42.35;;;17.38;;
7841;SDS011;3966;51.052;13.820;2022-11-15T06:35:10;44.00;;;17.33;;
7841;SDS011;3966;51.052;13.820;2022-11-15T06:37:35;39.22;;;16.65;;
7841;SDS011;3966;51.052;13.820;2022-11-15T06:40:01;50.13;;;19.58;;
7841;SDS011;3966;51.052;13.820;2022-11-15T06:42:27;72.35;;;23.75;;
7841;SDS011;3966;51.052;13.820;2022-11-15T06:44:52;51.78;;;19.73;;
7841;SDS011;3966;51.052;13.820;2022-11-15T06:47:18;41.92;;;17.98;;
7841;SDS011;3966;51.052;13.820;2022-11-15T06:49:43;53.08;;;19.58;;
7841;SDS011;3966;51.052;13.820;2022-11-15T06:52:09;46.40;;;18.70;;
7841;SDS011;3966;51.052;13.820;2022-11-15T06:54:34;42.03;;;16.75;;
7841;SDS011;3966;51.052;13.820;2022-11-15T06:57:00;52.55;;;18.85;;
7841;SDS011;3966;51.052;13.820;2022-11-15T06:59:25;45.00;;;18.67;;
7841;SDS011;3966;51.052;13.820;2022-11-15T07:01:51;43.75;;;17.92;;
7841;SDS011;3966;51.052;13.820;2022-11-15T07:04:16;48.15;;;19.10;;
7841;SDS011;3966;51.052;13.820;2022-11-15T07:06:42;44.58;;;18.30;;
7841;SDS011;3966;51.052;13.820;2022-11-15T07:09:07;48.63;;;18.52;;
7841;SDS011;3966;51.052;13.820;2022-11-15T07:11:33;55.20;;;18.48;;
7841;SDS011;3966;51.052;13.820;2022-11-15T07:13:59;41.13;;;17.35;;
7841;SDS011;3966;51.052;13.820;2022-11-15T07:16:25;43.10;;;17.63;;
7841;SDS011;3966;51.052;13.820;2022-11-15T07:18:50;43.25;;;16.83;;
7841;SDS011;3966;51.052;13.820;2022-11-15T07:21:16;43.28;;;16.88;;
7841;SDS011;3966;51.052;13.820;2022-11-15T07:23:41;45.60;;;17.73;;
7841;SDS011;3966;51.052;13.820;2022-11-15T07:26:07;41.65;;;17.63;;
7841;SDS011;3966;51.052;13.820;2022-11-15T07:28:33;41.42;;;17.70;;
7841;SDS011;3966;51.052;13.820;2022-11-15T07:31:01;40.42;;;16.30;;
7841;SDS011;3966;51.052;13.820;2022-11-15T07:33:28;41.03;;;16.98;;
7841;SDS011;3966;51.052;13.820;2022-11-15T07:35:54;43.00;;;17.25;;
7841;SDS011;3966;51.052;13.820;2022-11-15T07:38:23;46.10;;;17.00;;
7841;SDS011;3966;51.052;13.820;2022-11-15T07:40:55;41.35;;;16.80;;
7841;SDS011;3966;51.052;13.820;2022-11-15T07:43:26;42.40;;;18.75;;
7841;SDS011;3966;51.052;13.820;2022-11-15T07:45:55;48.55;;;18.80;;
7841;SDS011;3966;51.052;13.820;2022-11-15T07:48:21;62.25;;;20.38;;
7841;SDS011;3966;51.052;13.820;2022-11-15T07:50:47;67.35;;;20.50;;
7841;SDS011;3966;51.052;13.820;2022-11-15T07:53:13;44.33;;;18.48;;
7841;SDS011;3966;51.052;13.820;2022-11-15T07:55:39;56.05;;;19.55;;
7841;SDS011;3966;51.052;13.820;2022-11-15T07:58:07;57.13;;;19.73;;
7841;SDS011;3966;51.052;13.820;2022-11-15T08:00:34;47.15;;;17.90;;
7841;SDS011;3966;51.052;13.820;2022-11-15T08:03:01;48.05;;;17.70;;
7841;SDS011;3966;51.052;13.820;2022-11-15T08:05:30;45.72;;;16.75;;
7841;SDS011;3966;51.052;13.820;2022-11-15T08:07:56;38.15;;;16.90;;
7841;SDS011;3966;51.052;13.820;2022-11-15T08:10:21;36.28;;;15.45;;
7841;SDS011;3966;51.052;13.820;2022-11-15T08:12:47;41.92;;;16.13;;
7841;SDS011;3966;51.052;13.820;2022-11-15T08:15:12;36.97;;;15.82;;
7841;SDS011;3966;51.052;13.820;2022-11-15T08:17:38;35.50;;;14.60;;
7841;SDS011;3966;51.052;13.820;2022-11-15T08:20:04;32.85;;;14.15;;
7841;SDS011;3966;51.052;13.820;2022-11-15T08:22:30;31.77;;;14.63;;
7841;SDS011;3966;51.052;13.820;2022-11-15T08:24:55;36.00;;;14.85;;
7841;SDS011;3966;51.052;13.820;2022-11-15T08:27:21;35.22;;;13.57;;
7841;SDS011;3966;51.052;13.820;2022-11-15T08:29:47;32.22;;;14.52;;
7841;SDS011;3966;51.052;13.820;2022-11-15T08:32:14;36.42;;;14.50;;
7841;SDS011;3966;51.052;13.820;2022-11-15T08:34:39;29.83;;;13.57;;
7841;SDS011;3966;51.052;13.820;2022-11-15T08:37:05;29.83;;;13.48;;
7841;SDS011;3966;51.052;13.820;2022-11-15T08:39:31;31.30;;;13.18;;
7841;SDS011;3966;51.052;13.820;2022-11-15T08:41:56;28.50;;;12.70;;
7841;SDS011;3966;51.052;13.820;2022-11-15T08:44:22;23.25;;;10.82;;
7841;SDS011;3966;51.052;13.820;2022-11-15T08:46:49;28.63;;;12.32;;
7841;SDS011;3966;51.052;13.820;2022-11-15T08:49:14;27.52;;;11.70;;
7841;SDS011;3966;51.052;13.820;2022-11-15T08:51:40;24.48;;;11.35;;
7841;SDS011;3966;51.052;13.820;2022-11-15T08:54:06;28.77;;;11.32;;
7841;SDS011;3966;51.052;13.820;2022-11-15T08:56:31;26.88;;;11.88;;
7841;SDS011;3966;51.052;13.820;2022-11-15T08:58:57;20.85;;;11.10;;
7841;SDS011;3966;51.052;13.820;2022-11-15T09:01:23;25.15;;;10.77;;
7841;SDS011;3966;51.052;13.820;2022-11-15T09:03:48;20.95;;;10.60;;
7841;SDS011;3966;51.052;13.820;2022-11-15T09:06:14;21.35;;;10.52;;
7841;SDS011;3966;51.052;13.820;2022-11-15T09:08:40;22.27;;;11.02;;
7841;SDS011;3966;51.052;13.820;2022-11-15T09:11:06;24.77;;;12.20;;
7841;SDS011;3966;51.052;13.820;2022-11-15T09:13:33;26.42;;;11.80;;
7841;SDS011;3966;51.052;13.820;2022-11-15T09:16:01;22.38;;;11.57;;
7841;SDS011;3966;51.052;13.820;2022-11-15T09:18:27;26.25;;;11.82;;
7841;SDS011;3966;51.052;13.820;2022-11-15T09:20:56;23.45;;;11.85;;
7841;SDS011;3966;51.052;13.820;2022-11-15T09:23:22;24.65;;;11.55;;
7841;SDS011;3966;51.052;13.820;2022-11-15T09:25:48;21.67;;;11.98;;
7841;SDS011;3966;51.052;13.820;2022-11-15T09:28:14;24.23;;;11.02;;
7841;SDS011;3966;51.052;13.820;2022-11-15T09:30:39;21.88;;;10.98;;
7841;SDS011;3966;51.052;13.820;2022-11-15T09:33:09;25.83;;;12.07;;
7841;SDS011;3966;51.052;13.820;2022-11-15T09:35:36;20.95;;;11.40;;
7841;SDS011;3966;51.052;13.820;2022-11-15T09:38:02;23.98;;;11.25;;
7841;SDS011;3966;51.052;13.820;2022-11-15T09:40:29;22.08;;;11.90;;
7841;SDS011;3966;51.052;13.820;2022-11-15T09:43:22;22.25;;;11.65;;
7841;SDS011;3966;51.052;13.820;2022-11-15T09:48:54;22.95;;;11.27;;
7841;SDS011;3966;51.052;13.820;2022-11-15T09:51:35;20.95;;;11.10;;
7841;SDS011;3966;51.052;13.820;2022-11-15T09:54:13;21.85;;;11.60;;
7841;SDS011;3966;51.052;13.820;2022-11-15T09:56:44;19.77;;;11.02;;
7841;SDS011;3966;51.052;13.820;2022-11-15T10:02:00;25.45;;;11.55;;
7841;SDS011;3966;51.052;13.820;2022-11-15T10:04:36;26.42;;;12.20;;
7841;SDS011;3966;51.052;13.820;2022-11-15T10:07:13;23.48;;;11.95;;
7841;SDS011;3966;51.052;13.820;2022-11-15T10:12:12;21.67;;;11.30;;
7841;SDS011;3966;51.052;13.820;2022-11-15T10:14:38;22.88;;;11.65;;
7841;SDS011;3966;51.052;13.820;2022-11-15T10:17:12;22.40;;;11.95;;
7841;SDS011;3966;51.052;13.820;2022-11-15T10:22:24;21.65;;;10.82;;
7841;SDS011;3966;51.052;13.820;2022-11-15T10:28:16;22.27;;;11.15;;
7841;SDS011;3966;51.052;13.820;2022-11-15T10:30:50;22.92;;;10.52;;
7841;SDS011;3966;51.052;13.820;2022-11-15T10:41:36;20.92;;;9.25;;
7841;SDS011;3966;51.052;13.820;2022-11-15T10:46:27;23.10;;;10.25;;
7841;SDS011;3966;51.052;13.820;2022-11-15T10:48:52;22.67;;;10.40;;
7841;SDS011;3966;51.052;13.820;2022-11-15T10:51:23;21.52;;;9.95;;
7841;SDS011;3966;51.052;13.820;2022-11-15T10:53:56;26.33;;;12.18;;
7841;SDS011;3966;51.052;13.820;2022-11-15T10:56:24;22.05;;;10.48;;
7841;SDS011;3966;51.052;13.820;2022-11-15T10:58:51;21.40;;;10.73;;
7841;SDS011;3966;51.052;13.820;2022-11-15T11:01:19;24.40;;;10.70;;
7841;SDS011;3966;51.052;13.820;2022-11-15T11:04:04;22.33;;;10.43;;
7841;SDS011;3966;51.052;13.820;2022-11-15T11:06:45;19.90;;;10.70;;
7841;SDS011;3966;51.052;13.820;2022-11-15T11:09:20;23.42;;;10.60;;
7841;SDS011;3966;51.052;13.820;2022-11-15T11:11:54;21.30;;;11.13;;
7841;SDS011;3966;51.052;13.820;2022-11-15T11:16:58;21.30;;;11.75;;
7841;SDS011;3966;51.052;13.820;2022-11-15T11:22:24;18.02;;;9.95;;
7841;SDS011;3966;51.052;13.820;2022-11-15T11:25:18;20.85;;;10.82;;
7841;SDS011;3966;51.052;13.820;2022-11-15T11:30:19;21.40;;;10.10;;
7841;SDS011;3966;51.052;13.820;2022-11-15T11:38:19;23.63;;;10.88;;
7841;SDS011;3966;51.052;13.820;2022-11-15T11:44:18;22.38;;;10.98;;
7841;SDS011;3966;51.052;13.820;2022-11-15T11:52:13;22.40;;;10.27;;
7841;SDS011;3966;51.052;13.820;2022-11-15T12:00:37;21.38;;;10.48;;
7841;SDS011;3966;51.052;13.820;2022-11-15T12:03:10;18.38;;;9.73;;
7841;SDS011;3966;51.052;13.820;2022-11-15T12:05:54;20.50;;;11.02;;
7841;SDS011;3966;51.052;13.820;2022-11-15T12:13:44;20.50;;;10.70;;
7841;SDS011;3966;51.052;13.820;2022-11-15T12:16:23;23.60;;;10.48;;
7841;SDS011;3966;51.052;13.820;2022-11-15T12:18:52;23.33;;;10.90;;
7841;SDS011;3966;51.052;13.820;2022-11-15T12:21:21;18.40;;;10.23;;
7841;SDS011;3966;51.052;13.820;2022-11-15T12:24:02;19.90;;;10.30;;
7841;SDS011;3966;51.052;13.820;2022-11-15T12:26:38;19.33;;;10.80;;
7841;SDS011;3966;51.052;13.820;2022-11-15T12:29:15;16.23;;;9.75;;
7841;SDS011;3966;51.052;13.820;2022-11-15T12:31:48;21.45;;;10.05;;
7841;SDS011;3966;51.052;13.820;2022-11-15T12:36:45;22.52;;;10.27;;
7841;SDS011;3966;51.052;13.820;2022-11-15T12:39:12;22.98;;;10.23;;
7841;SDS011;3966;51.052;13.820;2022-11-15T12:41:39;19.80;;;9.65;;
7841;SDS011;3966;51.052;13.820;2022-11-15T12:44:16;18.30;;;9.13;;
7841;SDS011;3966;51.052;13.820;2022-11-15T12:52:08;18.52;;;9.43;;
7841;SDS011;3966;51.052;13.820;2022-11-15T13:02:33;19.05;;;9.38;;
7841;SDS011;3966;51.052;13.820;2022-11-15T13:17:39;21.52;;;10.70;;
7841;SDS011;3966;51.052;13.820;2022-11-15T13:22:49;18.42;;;9.68;;
7841;SDS011;3966;51.052;13.820;2022-11-15T13:30:39;19.67;;;10.00;;
7841;SDS011;3966;51.052;13.820;2022-11-15T13:33:16;15.95;;;8.63;;
7841;SDS011;3966;51.052;13.820;2022-11-15T13:35:49;18.08;;;9.65;;
7841;SDS011;3966;51.052;13.820;2022-11-15T13:38:18;18.83;;;9.35;;
7841;SDS011;3966;51.052;13.820;2022-11-15T13:40:58;15.65;;;8.75;;
7841;SDS011;3966;51.052;13.820;2022-11-15T13:46:06;21.13;;;9.65;;
7841;SDS011;3966;51.052;13.820;2022-11-15T13:48:50;18.20;;;9.70;;
7841;SDS011;3966;51.052;13.820;2022-11-15T13:53:49;18.77;;;9.52;;
7841;SDS011;3966;51.052;13.820;2022-11-15T13:56:19;18.85;;;10.15;;
7841;SDS011;3966;51.052;13.820;2022-11-15T13:58:45;17.30;;;9.82;;
7841;SDS011;3966;51.052;13.820;2022-11-15T14:01:15;17.85;;;9.77;;
7841;SDS011;3966;51.052;13.820;2022-11-15T14:03:58;19.42;;;10.13;;
7841;SDS011;3966;51.052;13.820;2022-11-15T14:06:25;18.52;;;9.88;;
7841;SDS011;3966;51.052;13.820;2022-11-15T14:11:28;23.08;;;10.55;;
7841;SDS011;3966;51.052;13.820;2022-11-15T14:16:36;20.33;;;10.30;;
7841;SDS011;3966;51.052;13.820;2022-11-15T14:19:11;21.50;;;10.82;;
7841;SDS011;3966;51.052;13.820;2022-11-15T14:24:46;25.40;;;10.88;;
7841;SDS011;3966;51.052;13.820;2022-11-15T14:27:30;25.88;;;11.57;;
7841;SDS011;3966;51.052;13.820;2022-11-15T14:29:56;22.50;;;10.35;;
7841;SDS011;3966;51.052;13.820;2022-11-15T14:32:26;26.70;;;11.63;;
7841;SDS011;3966;51.052;13.820;2022-11-15T14:34:58;23.00;;;12.32;;
7841;SDS011;3966;51.052;13.820;2022-11-15T14:37:31;22.52;;;11.57;;
7841;SDS011;3966;51.052;13.820;2022-11-15T14:39:59;23.95;;;11.45;;
7841;SDS011;3966;51.052;13.820;2022-11-15T14:42:26;25.02;;;11.43;;
7841;SDS011;3966;51.052;13.820;2022-11-15T14:44:52;19.73;;;10.27;;
7841;SDS011;3966;51.052;13.820;2022-11-15T14:47:17;23.60;;;11.15;;
7841;SDS011;3966;51.052;13.820;2022-11-15T14:49:43;23.70;;;11.35;;
7841;SDS011;3966;51.052;13.820;2022-11-15T14:54:52;25.30;;;12.10;;
7841;SDS011;3966;51.052;13.820;2022-11-15T14:57:18;27.20;;;11.88;;
7841;SDS011;3966;51.052;13.820;2022-11-15T14:59:44;26.20;;;12.13;;
7841;SDS011;3966;51.052;13.820;2022-11-15T15:02:20;27.35;;;12.00;;
7841;SDS011;3966;51.052;13.820;2022-11-15T15:04:47;25.85;;;11.77;;
7841;SDS011;3966;51.052;13.820;2022-11-15T15:07:14;26.60;;;12.13;;
7841;SDS011;3966;51.052;13.820;2022-11-15T15:09:39;25.10;;;11.48;;
7841;SDS011;3966;51.052;13.820;2022-11-15T15:12:11;31.58;;;12.85;;
7841;SDS011;3966;51.052;13.820;2022-11-15T15:14:40;25.05;;;12.20;;
7841;SDS011;3966;51.052;13.820;2022-11-15T15:17:05;26.30;;;12.57;;
7841;SDS011;3966;51.052;13.820;2022-11-15T15:19:31;29.05;;;12.48;;
7841;SDS011;3966;51.052;13.820;2022-11-15T15:21:57;27.80;;;12.55;;
7841;SDS011;3966;51.052;13.820;2022-11-15T15:24:22;28.17;;;12.02;;
7841;SDS011;3966;51.052;13.820;2022-11-15T15:26:48;26.55;;;12.43;;
7841;SDS011;3966;51.052;13.820;2022-11-15T15:29:13;26.13;;;11.85;;
7841;SDS011;3966;51.052;13.820;2022-11-15T15:31:39;22.95;;;11.63;;
7841;SDS011;3966;51.052;13.820;2022-11-15T15:34:04;27.08;;;12.35;;
7841;SDS011;3966;51.052;13.820;2022-11-15T15:36:30;26.00;;;11.98;;
7841;SDS011;3966;51.052;13.820;2022-11-15T15:38:55;27.63;;;11.88;;
7841;SDS011;3966;51.052;13.820;2022-11-15T15:41:21;29.02;;;11.90;;
7841;SDS011;3966;51.052;13.820;2022-11-15T15:43:49;24.80;;;12.45;;
7841;SDS011;3966;51.052;13.820;2022-11-15T15:46:15;26.98;;;12.48;;
7841;SDS011;3966;51.052;13.820;2022-11-15T15:48:42;27.02;;;12.05;;
7841;SDS011;3966;51.052;13.820;2022-11-15T15:51:08;29.23;;;11.85;;
7841;SDS011;3966;51.052;13.820;2022-11-15T15:53:34;25.45;;;12.13;;
7841;SDS011;3966;51.052;13.820;2022-11-15T15:56:00;26.45;;;12.80;;
7841;SDS011;3966;51.052;13.820;2022-11-15T15:58:26;29.40;;;12.30;;
7841;SDS011;3966;51.052;13.820;2022-11-15T16:00:52;27.67;;;12.50;;
7841;SDS011;3966;51.052;13.820;2022-11-15T16:03:17;25.17;;;12.02;;
7841;SDS011;3966;51.052;13.820;2022-11-15T16:05:43;26.88;;;12.30;;
7841;SDS011;3966;51.052;13.820;2022-11-15T16:08:22;27.70;;;12.43;;
7841;SDS011;3966;51.052;13.820;2022-11-15T16:10:48;26.83;;;11.70;;
7841;SDS011;3966;51.052;13.820;2022-11-15T16:13:14;26.90;;;12.00;;
7841;SDS011;3966;51.052;13.820;2022-11-15T16:15:40;29.17;;;12.05;;
7841;SDS011;3966;51.052;13.820;2022-11-15T16:18:08;28.77;;;12.57;;
7841;SDS011;3966;51.052;13.820;2022-11-15T16:20:40;31.08;;;13.88;;
7841;SDS011;3966;51.052;13.820;2022-11-15T16:23:10;31.80;;;13.23;;
7841;SDS011;3966;51.052;13.820;2022-11-15T16:25:40;29.35;;;13.32;;
7841;SDS011;3966;51.052;13.820;2022-11-15T16:30:46;28.42;;;13.27;;
7841;SDS011;3966;51.052;13.820;2022-11-15T16:33:12;28.17;;;13.45;;
7841;SDS011;3966;51.052;13.820;2022-11-15T16:35:37;28.17;;;12.98;;
7841;SDS011;3966;51.052;13.820;2022-11-15T16:38:03;38.63;;;13.43;;
7841;SDS011;3966;51.052;13.820;2022-11-15T16:40:29;31.15;;;12.65;;
7841;SDS011;3966;51.052;13.820;2022-11-15T16:42:57;33.38;;;13.13;;
7841;SDS011;3966;51.052;13.820;2022-11-15T16:45:24;31.85;;;14.18;;
7841;SDS011;3966;51.052;13.820;2022-11-15T16:47:50;30.27;;;13.50;;
7841;SDS011;3966;51.052;13.820;2022-11-15T16:50:20;34.88;;;14.55;;
7841;SDS011;3966;51.052;13.820;2022-11-15T16:52:51;30.88;;;13.05;;
7841;SDS011;3966;51.052;13.820;2022-11-15T16:55:18;29.05;;;14.18;;
7841;SDS011;3966;51.052;13.820;2022-11-15T16:57:44;29.67;;;12.90;;
7841;SDS011;3966;51.052;13.820;2022-11-15T17:00:10;30.83;;;13.82;;
7841;SDS011;3966;51.052;13.820;2022-11-15T17:02:40;34.40;;;13.80;;
7841;SDS011;3966;51.052;13.820;2022-11-15T17:05:10;33.58;;;13.90;;
7841;SDS011;3966;51.052;13.820;2022-11-15T17:07:36;30.80;;;12.90;;
7841;SDS011;3966;51.052;13.820;2022-11-15T17:10:03;32.35;;;13.48;;
7841;SDS011;3966;51.052;13.820;2022-11-15T17:12:28;29.10;;;12.65;;